sensor_id;sensor_type;location;lat;lon;timestamp;temperature;humidity
6824;DHT22;58633;49.470;11.004;2023-11-18T00:00:23;6.40;71.30
6824;DHT22;58633;49.470;11.004;2023-11-18T00:02:49;6.50;71.30
6824;DHT22;58633;49.470;11.004;2023-11-18T00:05:14;6.60;71.10
6824;DHT22;58633;49.470;11.004;2023-11-18T00:07:41;6.50;70.80
6824;DHT22;58633;49.470;11.004;2023-11-18T00:10:07;6.40;70.80
6824;DHT22;58633;49.470;11.004;2023-11-18T00:12:34;6.60;71.10
6824;DHT22;58633;49.470;11.004;2023-11-18T00:15:05;6.40;71.00
6824;DHT22;58633;49.470;11.004;2023-11-18T00:17:31;6.50;71.10
6824;DHT22;58633;49.470;11.004;2023-11-18T00:19:57;6.50;71.20
6824;DHT22;58633;49.470;11.004;2023-11-18T00:22:23;6.40;71.30
6824;DHT22;58633;49.470;11.004;2023-11-18T00:24:48;6.50;71.50
6824;DHT22;58633;49.470;11.004;2023-11-18T00:27:14;6.50;71.50
6824;DHT22;58633;49.470;11.004;2023-11-18T00:29:40;6.40;71.40
6824;DHT22;58633;49.470;11.004;2023-11-18T00:32:06;6.50;71.60
6824;DHT22;58633;49.470;11.004;2023-11-18T00:34:32;6.50;71.60
6824;DHT22;58633;49.470;11.004;2023-11-18T00:36:58;6.40;71.40
6824;DHT22;58633;49.470;11.004;2023-11-18T00:39:24;6.50;71.50
6824;DHT22;58633;49.470;11.004;2023-11-18T00:41:50;6.40;71.50
6824;DHT22;58633;49.470;11.004;2023-11-18T00:44:15;6.40;71.70
6824;DHT22;58633;49.470;11.004;2023-11-18T00:46:41;6.50;71.90
6824;DHT22;58633;49.470;11.004;2023-11-18T00:49:07;6.50;71.80
6824;DHT22;58633;49.470;11.004;2023-11-18T00:51:32;6.50;71.90
6824;DHT22;58633;49.470;11.004;2023-11-18T00:53:58;6.50;71.90
6824;DHT22;58633;49.470;11.004;2023-11-18T00:56:26;6.50;71.80
6824;DHT22;58633;49.470;11.004;2023-11-18T00:58:53;6.50;71.70
6824;DHT22;58633;49.470;11.004;2023-11-18T01:01:18;6.40;71.70
6824;DHT22;58633;49.470;11.004;2023-11-18T01:03:45;6.40;71.80
6824;DHT22;58633;49.470;11.004;2023-11-18T01:06:11;6.50;71.80
6824;DHT22;58633;49.470;11.004;2023-11-18T01:08:36;6.30;71.60
6824;DHT22;58633;49.470;11.004;2023-11-18T01:11:02;6.50;71.90
6824;DHT22;58633;49.470;11.004;2023-11-18T01:13:30;6.40;71.90
6824;DHT22;58633;49.470;11.004;2023-11-18T01:15:55;6.30;72.00
6824;DHT22;58633;49.470;11.004;2023-11-18T01:18:21;6.30;72.20
6824;DHT22;58633;49.470;11.004;2023-11-18T01:20:46;6.30;72.10
6824;DHT22;58633;49.470;11.004;2023-11-18T01:23:12;6.20;72.20
6824;DHT22;58633;49.470;11.004;2023-11-18T01:25:38;6.20;72.30
6824;DHT22;58633;49.470;11.004;2023-11-18T01:28:05;6.30;72.50
6824;DHT22;58633;49.470;11.004;2023-11-18T01:30:31;6.20;72.50
6824;DHT22;58633;49.470;11.004;2023-11-18T01:32:58;6.20;72.80
6824;DHT22;58633;49.470;11.004;2023-11-18T01:35:26;6.10;72.90
6824;DHT22;58633;49.470;11.004;2023-11-18T01:37:53;6.10;73.10
6824;DHT22;58633;49.470;11.004;2023-11-18T01:40:20;6.00;73.20
6824;DHT22;58633;49.470;11.004;2023-11-18T01:42:46;5.90;73.40
6824;DHT22;58633;49.470;11.004;2023-11-18T01:45:15;6.00;73.70
6824;DHT22;58633;49.470;11.004;2023-11-18T01:47:42;6.00;73.80
6824;DHT22;58633;49.470;11.004;2023-11-18T01:50:10;5.80;73.80
6824;DHT22;58633;49.470;11.004;2023-11-18T01:52:36;6.00;74.30
6824;DHT22;58633;49.470;11.004;2023-11-18T01:55:03;5.90;74.40
6824;DHT22;58633;49.470;11.004;2023-11-18T01:57:33;5.90;74.60
6824;DHT22;58633;49.470;11.004;2023-11-18T01:59:59;5.70;74.50
6824;DHT22;58633;49.470;11.004;2023-11-18T02:02:25;6.00;74.90
6824;DHT22;58633;49.470;11.004;2023-11-18T02:04:51;6.00;75.20
6824;DHT22;58633;49.470;11.004;2023-11-18T02:07:18;5.90;75.10
6824;DHT22;58633;49.470;11.004;2023-11-18T02:09:44;6.00;75.40
6824;DHT22;58633;49.470;11.004;2023-11-18T02:15:19;5.80;75.80
6824;DHT22;58633;49.470;11.004;2023-11-18T02:17:47;7.50;77.70
6824;DHT22;58633;49.470;11.004;2023-11-18T02:20:14;5.70;76.30
6824;DHT22;58633;49.470;11.004;2023-11-18T02:22:42;5.80;76.60
6824;DHT22;58633;49.470;11.004;2023-11-18T02:25:09;5.80;77.10
6824;DHT22;58633;49.470;11.004;2023-11-18T02:27:37;5.80;77.10
6824;DHT22;58633;49.470;11.004;2023-11-18T02:30:03;6.00;77.10
6824;DHT22;58633;49.470;11.004;2023-11-18T02:32:39;5.90;77.00
6824;DHT22;58633;49.470;11.004;2023-11-18T02:35:15;5.90;76.90
6824;DHT22;58633;49.470;11.004;2023-11-18T02:37:44;5.80;76.70
6824;DHT22;58633;49.470;11.004;2023-11-18T02:40:12;5.80;77.00
6824;DHT22;58633;49.470;11.004;2023-11-18T02:42:43;5.70;77.30
6824;DHT22;58633;49.470;11.004;2023-11-18T02:45:11;5.70;78.20
6824;DHT22;58633;49.470;11.004;2023-11-18T02:47:44;5.70;78.20
6824;DHT22;58633;49.470;11.004;2023-11-18T02:50:10;5.70;78.40
6824;DHT22;58633;49.470;11.004;2023-11-18T02:52:39;5.60;78.80
6824;DHT22;58633;49.470;11.004;2023-11-18T02:55:08;5.60;79.40
6824;DHT22;58633;49.470;11.004;2023-11-18T02:57:35;5.50;79.30
6824;DHT22;58633;49.470;11.004;2023-11-18T03:00:01;8.00;81.70
6824;DHT22;58633;49.470;11.004;2023-11-18T03:02:28;5.40;79.40
6824;DHT22;58633;49.470;11.004;2023-11-18T03:04:57;5.20;79.50
6824;DHT22;58633;49.470;11.004;2023-11-18T03:07:22;5.30;80.10
6824;DHT22;58633;49.470;11.004;2023-11-18T03:09:48;5.30;80.30
6824;DHT22;58633;49.470;11.004;2023-11-18T03:12:13;5.10;80.60
6824;DHT22;58633;49.470;11.004;2023-11-18T03:14:39;5.30;81.00
6824;DHT22;58633;49.470;11.004;2023-11-18T03:17:04;5.10;81.30
6824;DHT22;58633;49.470;11.004;2023-11-18T03:19:32;5.00;80.50
6824;DHT22;58633;49.470;11.004;2023-11-18T03:22:02;5.10;80.70
6824;DHT22;58633;49.470;11.004;2023-11-18T03:24:28;5.20;81.20
6824;DHT22;58633;49.470;11.004;2023-11-18T03:26:55;4.90;81.40
6824;DHT22;58633;49.470;11.004;2023-11-18T03:29:20;4.90;81.60
6824;DHT22;58633;49.470;11.004;2023-11-18T03:31:46;4.90;82.30
6824;DHT22;58633;49.470;11.004;2023-11-18T03:34:14;7.30;84.20
6824;DHT22;58633;49.470;11.004;2023-11-18T03:36:40;4.80;82.20
6824;DHT22;58633;49.470;11.004;2023-11-18T03:39:05;4.80;82.40
6824;DHT22;58633;49.470;11.004;2023-11-18T03:41:31;4.80;82.40
6824;DHT22;58633;49.470;11.004;2023-11-18T03:43:57;4.80;82.20
6824;DHT22;58633;49.470;11.004;2023-11-18T03:46:22;4.70;82.60
6824;DHT22;58633;49.470;11.004;2023-11-18T03:48:48;4.80;83.10
6824;DHT22;58633;49.470;11.004;2023-11-18T03:51:14;4.80;83.00
6824;DHT22;58633;49.470;11.004;2023-11-18T03:53:42;4.80;83.20
6824;DHT22;58633;49.470;11.004;2023-11-18T03:56:08;4.90;83.10
6824;DHT22;58633;49.470;11.004;2023-11-18T03:58:33;4.80;82.70
6824;DHT22;58633;49.470;11.004;2023-11-18T04:01:00;5.10;82.90
6824;DHT22;58633;49.470;11.004;2023-11-18T04:03:27;4.90;82.70
6824;DHT22;58633;49.470;11.004;2023-11-18T04:05:52;4.90;83.10
6824;DHT22;58633;49.470;11.004;2023-11-18T04:08:18;4.80;82.30
6824;DHT22;58633;49.470;11.004;2023-11-18T04:10:43;4.80;82.50
6824;DHT22;58633;49.470;11.004;2023-11-18T04:13:09;4.90;83.10
6824;DHT22;58633;49.470;11.004;2023-11-18T04:15:34;4.90;83.90
6824;DHT22;58633;49.470;11.004;2023-11-18T04:18:01;4.90;83.90
6824;DHT22;58633;49.470;11.004;2023-11-18T04:20:26;5.00;84.50
6824;DHT22;58633;49.470;11.004;2023-11-18T04:22:52;4.90;84.50
6824;DHT22;58633;49.470;11.004;2023-11-18T04:25:18;4.90;84.20
6824;DHT22;58633;49.470;11.004;2023-11-18T04:27:43;5.00;84.40
6824;DHT22;58633;49.470;11.004;2023-11-18T04:30:09;4.80;84.50
6824;DHT22;58633;49.470;11.004;2023-11-18T04:32:35;5.00;84.80
6824;DHT22;58633;49.470;11.004;2023-11-18T04:35:01;4.90;85.10
6824;DHT22;58633;49.470;11.004;2023-11-18T04:37:35;5.00;85.00
6824;DHT22;58633;49.470;11.004;2023-11-18T04:40:06;5.00;84.70
6824;DHT22;58633;49.470;11.004;2023-11-18T04:42:34;5.00;84.30
6824;DHT22;58633;49.470;11.004;2023-11-18T04:45:00;4.90;84.40
6824;DHT22;58633;49.470;11.004;2023-11-18T04:47:26;4.90;84.70
6824;DHT22;58633;49.470;11.004;2023-11-18T04:49:52;4.90;85.10
6824;DHT22;58633;49.470;11.004;2023-11-18T04:52:17;4.80;85.60
6824;DHT22;58633;49.470;11.004;2023-11-18T04:54:43;4.90;86.20
6824;DHT22;58633;49.470;11.004;2023-11-18T04:57:09;4.90;86.00
6824;DHT22;58633;49.470;11.004;2023-11-18T04:59:35;5.00;86.10
6824;DHT22;58633;49.470;11.004;2023-11-18T05:02:01;4.70;86.20
6824;DHT22;58633;49.470;11.004;2023-11-18T05:04:28;4.70;85.60
6824;DHT22;58633;49.470;11.004;2023-11-18T05:06:53;4.70;86.20
6824;DHT22;58633;49.470;11.004;2023-11-18T05:09:19;4.70;86.90
6824;DHT22;58633;49.470;11.004;2023-11-18T05:11:44;4.70;86.40
6824;DHT22;58633;49.470;11.004;2023-11-18T05:14:10;4.60;86.30
6824;DHT22;58633;49.470;11.004;2023-11-18T05:16:36;4.60;86.70
6824;DHT22;58633;49.470;11.004;2023-11-18T05:19:02;4.50;86.50
6824;DHT22;58633;49.470;11.004;2023-11-18T05:21:28;4.60;86.90
6824;DHT22;58633;49.470;11.004;2023-11-18T05:23:53;3.80;87.00
6824;DHT22;58633;49.470;11.004;2023-11-18T05:26:19;4.50;88.20
6824;DHT22;58633;49.470;11.004;2023-11-18T05:28:44;4.50;87.80
6824;DHT22;58633;49.470;11.004;2023-11-18T05:31:10;4.50;87.10
6824;DHT22;58633;49.470;11.004;2023-11-18T05:33:36;4.50;86.40
6824;DHT22;58633;49.470;11.004;2023-11-18T05:36:02;4.40;86.10
6824;DHT22;58633;49.470;11.004;2023-11-18T05:38:30;4.30;86.70
6824;DHT22;58633;49.470;11.004;2023-11-18T05:41:00;4.40;87.20
6824;DHT22;58633;49.470;11.004;2023-11-18T05:43:31;4.60;85.80
6824;DHT22;58633;49.470;11.004;2023-11-18T05:46:06;4.40;86.10
6824;DHT22;58633;49.470;11.004;2023-11-18T05:48:41;4.40;85.60
6824;DHT22;58633;49.470;11.004;2023-11-18T05:51:07;4.30;85.40
6824;DHT22;58633;49.470;11.004;2023-11-18T05:53:33;4.50;85.50
6824;DHT22;58633;49.470;11.004;2023-11-18T05:55:58;4.30;85.10
6824;DHT22;58633;49.470;11.004;2023-11-18T05:58:24;4.30;85.30
6824;DHT22;58633;49.470;11.004;2023-11-18T06:00:49;4.30;85.70
6824;DHT22;58633;49.470;11.004;2023-11-18T06:03:15;4.30;86.10
6824;DHT22;58633;49.470;11.004;2023-11-18T06:05:40;4.30;86.40
6824;DHT22;58633;49.470;11.004;2023-11-18T06:08:06;4.20;87.70
6824;DHT22;58633;49.470;11.004;2023-11-18T06:10:33;4.30;87.80
6824;DHT22;58633;49.470;11.004;2023-11-18T06:12:59;4.40;87.60
6824;DHT22;58633;49.470;11.004;2023-11-18T06:15:25;5.00;87.50
6824;DHT22;58633;49.470;11.004;2023-11-18T06:17:51;4.30;87.40
6824;DHT22;58633;49.470;11.004;2023-11-18T06:20:16;4.40;87.00
6824;DHT22;58633;49.470;11.004;2023-11-18T06:22:42;4.30;87.50
6824;DHT22;58633;49.470;11.004;2023-11-18T06:25:08;4.50;87.80
6824;DHT22;58633;49.470;11.004;2023-11-18T06:27:34;4.40;86.20
6824;DHT22;58633;49.470;11.004;2023-11-18T06:30:00;4.40;86.50
6824;DHT22;58633;49.470;11.004;2023-11-18T06:32:25;4.30;86.00
6824;DHT22;58633;49.470;11.004;2023-11-18T06:34:51;4.40;87.50
6824;DHT22;58633;49.470;11.004;2023-11-18T06:37:17;4.40;88.00
6824;DHT22;58633;49.470;11.004;2023-11-18T06:39:42;4.30;86.50
6824;DHT22;58633;49.470;11.004;2023-11-18T06:42:11;4.30;86.70
6824;DHT22;58633;49.470;11.004;2023-11-18T06:44:37;4.30;87.30
6824;DHT22;58633;49.470;11.004;2023-11-18T06:47:03;4.30;87.40
6824;DHT22;58633;49.470;11.004;2023-11-18T06:49:30;4.30;87.10
6824;DHT22;58633;49.470;11.004;2023-11-18T06:52:00;4.20;87.50
6824;DHT22;58633;49.470;11.004;2023-11-18T06:54:29;4.30;87.50
6824;DHT22;58633;49.470;11.004;2023-11-18T06:56:54;4.20;87.30
6824;DHT22;58633;49.470;11.004;2023-11-18T06:59:20;4.30;87.60
6824;DHT22;58633;49.470;11.004;2023-11-18T07:01:45;4.30;88.70
6824;DHT22;58633;49.470;11.004;2023-11-18T07:04:11;4.20;89.30
6824;DHT22;58633;49.470;11.004;2023-11-18T07:06:37;4.20;89.30
6824;DHT22;58633;49.470;11.004;2023-11-18T07:09:04;4.40;88.50
6824;DHT22;58633;49.470;11.004;2023-11-18T07:11:34;4.20;88.60
6824;DHT22;58633;49.470;11.004;2023-11-18T07:14:00;4.30;89.20
6824;DHT22;58633;49.470;11.004;2023-11-18T07:16:26;4.20;88.40
6824;DHT22;58633;49.470;11.004;2023-11-18T07:18:52;4.10;88.70
6824;DHT22;58633;49.470;11.004;2023-11-18T07:21:18;4.10;88.40
6824;DHT22;58633;49.470;11.004;2023-11-18T07:23:44;4.20;88.00
6824;DHT22;58633;49.470;11.004;2023-11-18T07:26:09;4.30;88.50
6824;DHT22;58633;49.470;11.004;2023-11-18T07:28:36;4.20;88.40
6824;DHT22;58633;49.470;11.004;2023-11-18T07:31:01;4.30;89.20
6824;DHT22;58633;49.470;11.004;2023-11-18T07:33:30;4.40;88.00
6824;DHT22;58633;49.470;11.004;2023-11-18T07:35:59;4.40;87.70
6824;DHT22;58633;49.470;11.004;2023-11-18T07:38:24;4.30;88.00
6824;DHT22;58633;49.470;11.004;2023-11-18T07:40:51;4.40;88.00
6824;DHT22;58633;49.470;11.004;2023-11-18T07:43:22;4.50;89.20
6824;DHT22;58633;49.470;11.004;2023-11-18T07:45:48;4.60;87.80
6824;DHT22;58633;49.470;11.004;2023-11-18T07:48:17;8.30;90.70
6824;DHT22;58633;49.470;11.004;2023-11-18T07:50:43;4.50;88.10
6824;DHT22;58633;49.470;11.004;2023-11-18T07:53:13;4.50;88.10
6824;DHT22;58633;49.470;11.004;2023-11-18T07:55:38;4.70;89.30
6824;DHT22;58633;49.470;11.004;2023-11-18T07:58:11;4.80;88.70
6824;DHT22;58633;49.470;11.004;2023-11-18T08:00:40;4.80;88.50
6824;DHT22;58633;49.470;11.004;2023-11-18T08:03:06;4.90;89.10
6824;DHT22;58633;49.470;11.004;2023-11-18T08:05:37;5.00;87.90
6824;DHT22;58633;49.470;11.004;2023-11-18T08:08:05;5.00;86.70
6824;DHT22;58633;49.470;11.004;2023-11-18T08:10:31;5.30;86.90
6824;DHT22;58633;49.470;11.004;2023-11-18T08:12:58;5.30;86.50
6824;DHT22;58633;49.470;11.004;2023-11-18T08:15:24;5.30;86.70
6824;DHT22;58633;49.470;11.004;2023-11-18T08:17:52;5.40;86.10
6824;DHT22;58633;49.470;11.004;2023-11-18T08:20:19;5.50;85.50
6824;DHT22;58633;49.470;11.004;2023-11-18T08:22:49;5.50;84.90
6824;DHT22;58633;49.470;11.004;2023-11-18T08:25:14;5.50;84.90
6824;DHT22;58633;49.470;11.004;2023-11-18T08:27:40;5.60;84.10
6824;DHT22;58633;49.470;11.004;2023-11-18T08:30:07;5.60;84.10
6824;DHT22;58633;49.470;11.004;2023-11-18T08:32:37;5.60;84.20
6824;DHT22;58633;49.470;11.004;2023-11-18T08:35:08;5.80;84.40
6824;DHT22;58633;49.470;11.004;2023-11-18T08:37:35;5.80;84.10
6824;DHT22;58633;49.470;11.004;2023-11-18T08:40:03;5.90;84.10
6824;DHT22;58633;49.470;11.004;2023-11-18T08:42:28;6.20;84.00
6824;DHT22;58633;49.470;11.004;2023-11-18T08:44:55;5.80;83.60
6824;DHT22;58633;49.470;11.004;2023-11-18T08:47:21;5.90;82.80
6824;DHT22;58633;49.470;11.004;2023-11-18T08:49:47;5.80;82.20
6824;DHT22;58633;49.470;11.004;2023-11-18T08:52:12;5.80;82.80
6824;DHT22;58633;49.470;11.004;2023-11-18T08:54:39;6.10;83.80
6824;DHT22;58633;49.470;11.004;2023-11-18T08:57:25;6.10;83.70
6824;DHT22;58633;49.470;11.004;2023-11-18T08:59:51;6.30;83.00
6824;DHT22;58633;49.470;11.004;2023-11-18T09:02:20;6.20;82.50
6824;DHT22;58633;49.470;11.004;2023-11-18T09:04:52;6.20;82.30
6824;DHT22;58633;49.470;11.004;2023-11-18T09:07:20;6.30;82.30
6824;DHT22;58633;49.470;11.004;2023-11-18T09:09:47;6.50;82.40
6824;DHT22;58633;49.470;11.004;2023-11-18T09:12:14;8.70;84.00
6824;DHT22;58633;49.470;11.004;2023-11-18T09:14:40;8.50;83.00
6824;DHT22;58633;49.470;11.004;2023-11-18T09:17:08;6.50;81.10
6824;DHT22;58633;49.470;11.004;2023-11-18T09:19:34;6.50;81.10
6824;DHT22;58633;49.470;11.004;2023-11-18T09:22:00;9.50;83.50
6824;DHT22;58633;49.470;11.004;2023-11-18T09:24:26;6.60;80.60
6824;DHT22;58633;49.470;11.004;2023-11-18T09:26:51;6.80;80.40
6824;DHT22;58633;49.470;11.004;2023-11-18T09:29:17;6.80;80.10
6824;DHT22;58633;49.470;11.004;2023-11-18T09:31:46;6.80;79.90
6824;DHT22;58633;49.470;11.004;2023-11-18T09:34:15;6.80;79.40
6824;DHT22;58633;49.470;11.004;2023-11-18T09:36:45;8.30;80.60
6824;DHT22;58633;49.470;11.004;2023-11-18T09:39:10;6.90;79.30
6824;DHT22;58633;49.470;11.004;2023-11-18T09:41:55;6.90;78.90
6824;DHT22;58633;49.470;11.004;2023-11-18T09:44:22;7.10;79.30
6824;DHT22;58633;49.470;11.004;2023-11-18T09:46:55;7.00;79.10
6824;DHT22;58633;49.470;11.004;2023-11-18T09:49:31;7.00;79.00
6824;DHT22;58633;49.470;11.004;2023-11-18T09:52:05;7.10;78.90
6824;DHT22;58633;49.470;11.004;2023-11-18T09:54:39;7.30;79.00
6824;DHT22;58633;49.470;11.004;2023-11-18T09:57:08;7.30;78.90
6824;DHT22;58633;49.470;11.004;2023-11-18T09:59:49;7.50;79.00
6824;DHT22;58633;49.470;11.004;2023-11-18T10:02:20;7.70;78.80
6824;DHT22;58633;49.470;11.004;2023-11-18T10:04:49;7.70;78.70
6824;DHT22;58633;49.470;11.004;2023-11-18T10:07:23;7.70;78.30
6824;DHT22;58633;49.470;11.004;2023-11-18T10:09:54;7.80;77.90
6824;DHT22;58633;49.470;11.004;2023-11-18T10:12:22;7.90;77.60
6824;DHT22;58633;49.470;11.004;2023-11-18T10:14:49;8.30;78.00
6824;DHT22;58633;49.470;11.004;2023-11-18T10:17:17;7.90;77.60
6824;DHT22;58633;49.470;11.004;2023-11-18T10:19:58;8.10;77.90
6824;DHT22;58633;49.470;11.004;2023-11-18T10:22:37;8.40;78.00
6824;DHT22;58633;49.470;11.004;2023-11-18T10:25:03;8.70;77.70
6824;DHT22;58633;49.470;11.004;2023-11-18T10:27:31;8.90;77.50
6824;DHT22;58633;49.470;11.004;2023-11-18T10:30:04;9.00;77.00
6824;DHT22;58633;49.470;11.004;2023-11-18T10:32:32;9.80;76.00
6824;DHT22;58633;49.470;11.004;2023-11-18T10:35:01;9.60;76.10
6824;DHT22;58633;49.470;11.004;2023-11-18T10:37:27;9.70;74.90
6824;DHT22;58633;49.470;11.004;2023-11-18T10:39:56;9.60;74.20
6824;DHT22;58633;49.470;11.004;2023-11-18T10:42:28;9.70;74.20
6824;DHT22;58633;49.470;11.004;2023-11-18T10:44:59;9.90;74.40
6824;DHT22;58633;49.470;11.004;2023-11-18T10:47:34;10.20;72.90
6824;DHT22;58633;49.470;11.004;2023-11-18T10:50:04;10.30;71.70
6824;DHT22;58633;49.470;11.004;2023-11-18T10:52:30;10.20;71.30
6824;DHT22;58633;49.470;11.004;2023-11-18T10:54:57;10.10;71.20
6824;DHT22;58633;49.470;11.004;2023-11-18T10:57:23;10.20;71.30
6824;DHT22;58633;49.470;11.004;2023-11-18T11:00:05;10.10;70.30
6824;DHT22;58633;49.470;11.004;2023-11-18T11:02:39;10.00;70.60
6824;DHT22;58633;49.470;11.004;2023-11-18T11:05:07;9.90;71.50
6824;DHT22;58633;49.470;11.004;2023-11-18T11:07:33;10.10;70.40
6824;DHT22;58633;49.470;11.004;2023-11-18T11:10:02;10.00;70.10
6824;DHT22;58633;49.470;11.004;2023-11-18T11:12:33;10.00;70.00
6824;DHT22;58633;49.470;11.004;2023-11-18T11:15:12;9.90;70.90
6824;DHT22;58633;49.470;11.004;2023-11-18T11:17:52;9.80;70.70
6824;DHT22;58633;49.470;11.004;2023-11-18T11:20:25;9.70;71.00
6824;DHT22;58633;49.470;11.004;2023-11-18T11:23:08;9.70;71.40
6824;DHT22;58633;49.470;11.004;2023-11-18T11:25:48;9.70;71.40
6824;DHT22;58633;49.470;11.004;2023-11-18T11:28:22;9.80;71.60
6824;DHT22;58633;49.470;11.004;2023-11-18T11:30:55;11.90;71.60
6824;DHT22;58633;49.470;11.004;2023-11-18T11:33:39;9.80;70.70
6824;DHT22;58633;49.470;11.004;2023-11-18T11:36:12;10.10;69.80
6824;DHT22;58633;49.470;11.004;2023-11-18T11:38:38;10.20;69.50
6824;DHT22;58633;49.470;11.004;2023-11-18T11:41:04;10.40;68.70
6824;DHT22;58633;49.470;11.004;2023-11-18T11:43:31;10.40;68.20
6824;DHT22;58633;49.470;11.004;2023-11-18T11:46:01;11.10;69.00
6824;DHT22;58633;49.470;11.004;2023-11-18T11:48:30;10.30;68.70
6824;DHT22;58633;49.470;11.004;2023-11-18T11:51:55;10.30;68.30
6824;DHT22;58633;49.470;11.004;2023-11-18T11:54:27;10.20;68.00
6824;DHT22;58633;49.470;11.004;2023-11-18T11:56:58;10.30;67.90
6824;DHT22;58633;49.470;11.004;2023-11-18T11:59:54;10.30;68.10
6824;DHT22;58633;49.470;11.004;2023-11-18T12:02:22;10.30;67.90
6824;DHT22;58633;49.470;11.004;2023-11-18T12:04:55;10.30;67.80
6824;DHT22;58633;49.470;11.004;2023-11-18T12:07:25;10.20;67.80
6824;DHT22;58633;49.470;11.004;2023-11-18T12:09:59;10.20;67.90
6824;DHT22;58633;49.470;11.004;2023-11-18T12:12:27;10.10;67.60
6824;DHT22;58633;49.470;11.004;2023-11-18T12:14:54;10.20;67.90
6824;DHT22;58633;49.470;11.004;2023-11-18T12:17:23;10.20;67.90
6824;DHT22;58633;49.470;11.004;2023-11-18T12:19:57;10.10;67.60
6824;DHT22;58633;49.470;11.004;2023-11-18T12:23:04;12.80;70.40
6824;DHT22;58633;49.470;11.004;2023-11-18T12:25:40;10.10;67.90
6824;DHT22;58633;49.470;11.004;2023-11-18T12:28:10;10.10;67.80
6824;DHT22;58633;49.470;11.004;2023-11-18T12:30:39;10.30;68.00
6824;DHT22;58633;49.470;11.004;2023-11-18T12:33:09;10.10;67.60
6824;DHT22;58633;49.470;11.004;2023-11-18T12:41:34;10.00;67.70
6824;DHT22;58633;49.470;11.004;2023-11-18T12:46:53;9.90;68.60
6824;DHT22;58633;49.470;11.004;2023-11-18T12:49:21;10.00;67.30
6824;DHT22;58633;49.470;11.004;2023-11-18T12:51:50;10.00;67.20
6824;DHT22;58633;49.470;11.004;2023-11-18T12:54:18;11.50;68.70
6824;DHT22;58633;49.470;11.004;2023-11-18T12:56:45;9.90;68.40
6824;DHT22;58633;49.470;11.004;2023-11-18T12:59:17;9.80;68.20
6824;DHT22;58633;49.470;11.004;2023-11-18T13:01:50;9.80;68.00
6824;DHT22;58633;49.470;11.004;2023-11-18T13:04:22;9.90;67.80
6824;DHT22;58633;49.470;11.004;2023-11-18T13:06:52;9.90;67.70
6824;DHT22;58633;49.470;11.004;2023-11-18T13:09:18;9.90;68.10
6824;DHT22;58633;49.470;11.004;2023-11-18T13:12:02;10.00;66.50
6824;DHT22;58633;49.470;11.004;2023-11-18T13:14:31;10.00;66.10
6824;DHT22;58633;49.470;11.004;2023-11-18T13:17:02;9.90;66.70
6824;DHT22;58633;49.470;11.004;2023-11-18T13:19:31;10.00;65.80
6824;DHT22;58633;49.470;11.004;2023-11-18T13:22:01;10.50;66.20
6824;DHT22;58633;49.470;11.004;2023-11-18T13:24:27;12.40;68.30
6824;DHT22;58633;49.470;11.004;2023-11-18T13:26:56;9.60;66.90
6824;DHT22;58633;49.470;11.004;2023-11-18T13:29:23;9.50;67.00
6824;DHT22;58633;49.470;11.004;2023-11-18T13:31:50;9.60;67.30
6824;DHT22;58633;49.470;11.004;2023-11-18T13:34:19;9.50;67.10
6824;DHT22;58633;49.470;11.004;2023-11-18T13:36:46;9.50;67.00
6824;DHT22;58633;49.470;11.004;2023-11-18T13:39:19;9.40;67.30
6824;DHT22;58633;49.470;11.004;2023-11-18T13:41:49;9.50;67.70
6824;DHT22;58633;49.470;11.004;2023-11-18T13:44:34;9.40;67.40
6824;DHT22;58633;49.470;11.004;2023-11-18T13:47:00;9.30;67.30
6824;DHT22;58633;49.470;11.004;2023-11-18T13:49:33;9.30;67.60
6824;DHT22;58633;49.470;11.004;2023-11-18T13:52:00;9.30;67.70
6824;DHT22;58633;49.470;11.004;2023-11-18T13:54:29;10.20;67.60
6824;DHT22;58633;49.470;11.004;2023-11-18T13:56:58;9.00;67.80
6824;DHT22;58633;49.470;11.004;2023-11-18T13:59:25;9.20;68.30
6824;DHT22;58633;49.470;11.004;2023-11-18T14:01:55;9.20;68.40
6824;DHT22;58633;49.470;11.004;2023-11-18T14:04:26;9.20;68.60
6824;DHT22;58633;49.470;11.004;2023-11-18T14:06:53;9.20;68.70
6824;DHT22;58633;49.470;11.004;2023-11-18T14:09:20;9.30;68.70
6824;DHT22;58633;49.470;11.004;2023-11-18T14:11:47;9.10;68.70
6824;DHT22;58633;49.470;11.004;2023-11-18T14:14:13;9.20;69.10
6824;DHT22;58633;49.470;11.004;2023-11-18T14:16:39;9.20;69.20
6824;DHT22;58633;49.470;11.004;2023-11-18T14:19:05;9.20;69.10
6824;DHT22;58633;49.470;11.004;2023-11-18T14:21:32;9.10;69.10
6824;DHT22;58633;49.470;11.004;2023-11-18T14:23:57;9.20;69.20
6824;DHT22;58633;49.470;11.004;2023-11-18T14:26:27;9.10;69.10
6824;DHT22;58633;49.470;11.004;2023-11-18T14:28:53;9.10;69.10
6824;DHT22;58633;49.470;11.004;2023-11-18T14:31:18;9.10;69.10
6824;DHT22;58633;49.470;11.004;2023-11-18T14:33:44;9.20;69.40
6824;DHT22;58633;49.470;11.004;2023-11-18T14:36:10;9.10;69.40
6824;DHT22;58633;49.470;11.004;2023-11-18T14:38:36;9.20;69.70
6824;DHT22;58633;49.470;11.004;2023-11-18T14:41:03;9.00;69.50
6824;DHT22;58633;49.470;11.004;2023-11-18T14:43:30;9.00;69.70
6824;DHT22;58633;49.470;11.004;2023-11-18T14:45:55;9.00;69.70
6824;DHT22;58633;49.470;11.004;2023-11-18T14:48:21;8.90;69.90
6824;DHT22;58633;49.470;11.004;2023-11-18T14:50:47;9.00;70.10
6824;DHT22;58633;49.470;11.004;2023-11-18T14:53:12;9.10;70.20
6824;DHT22;58633;49.470;11.004;2023-11-18T14:55:38;9.00;70.10
6824;DHT22;58633;49.470;11.004;2023-11-18T14:58:04;9.10;70.30
6824;DHT22;58633;49.470;11.004;2023-11-18T15:00:32;9.00;70.40
6824;DHT22;58633;49.470;11.004;2023-11-18T15:02:58;10.20;70.50
6824;DHT22;58633;49.470;11.004;2023-11-18T15:05:24;9.00;70.70
6824;DHT22;58633;49.470;11.004;2023-11-18T15:07:53;9.00;70.80
6824;DHT22;58633;49.470;11.004;2023-11-18T15:10:24;8.90;70.70
6824;DHT22;58633;49.470;11.004;2023-11-18T15:12:54;8.90;70.80
6824;DHT22;58633;49.470;11.004;2023-11-18T15:15:24;8.90;70.90
6824;DHT22;58633;49.470;11.004;2023-11-18T15:17:57;9.00;71.00
6824;DHT22;58633;49.470;11.004;2023-11-18T15:20:24;10.70;71.60
6824;DHT22;58633;49.470;11.004;2023-11-18T15:22:50;8.90;70.90
6824;DHT22;58633;49.470;11.004;2023-11-18T15:25:16;8.80;71.00
6824;DHT22;58633;49.470;11.004;2023-11-18T15:27:44;8.90;71.10
6824;DHT22;58633;49.470;11.004;2023-11-18T15:30:14;8.90;71.20
6824;DHT22;58633;49.470;11.004;2023-11-18T15:32:41;8.90;71.20
6824;DHT22;58633;49.470;11.004;2023-11-18T15:35:08;9.00;71.30
6824;DHT22;58633;49.470;11.004;2023-11-18T15:37:35;8.90;71.20
6824;DHT22;58633;49.470;11.004;2023-11-18T15:40:01;8.80;71.10
6824;DHT22;58633;49.470;11.004;2023-11-18T15:42:35;8.80;71.30
6824;DHT22;58633;49.470;11.004;2023-11-18T15:45:02;8.90;71.40
6824;DHT22;58633;49.470;11.004;2023-11-18T15:47:27;8.80;71.40
6824;DHT22;58633;49.470;11.004;2023-11-18T15:49:53;8.80;71.50
6824;DHT22;58633;49.470;11.004;2023-11-18T15:52:18;8.80;71.70
6824;DHT22;58633;49.470;11.004;2023-11-18T15:54:44;10.80;72.60
6824;DHT22;58633;49.470;11.004;2023-11-18T15:57:09;9.00;72.00
6824;DHT22;58633;49.470;11.004;2023-11-18T15:59:35;8.80;71.90
6824;DHT22;58633;49.470;11.004;2023-11-18T16:02:00;8.70;71.90